Jacky L O'neal — WDG3892 — position and weather

sailwx.info

Track history (hours):
 
Tides and Currents Weather Stations Pressure Air Temp Water Temp Dewpoint Dewpoint Depression Visibility Wind Speed Wind Dir Waves Ship Positions

Jacky L O'neal

Owner: American Commercial Lines LLC, Jeffersonville, IN. More information available from US FCC via Universal Licensing System and Coast Guard Vessel Documentation Center.

Last reported at 2017-Apr-30 07:00 UTC. Time now 2017-Apr-30 07:07 UTC.
Position N 32°07' W 091°02'.

Length 55 m; draft 2.9 m.

Type: Tow > 200 m length. MMSI: 367530760.

Date/timePositionNaut miles runAvg speedWind from/ knotsBaromVisibWave heightAir tempDewpointWater temp
2017-Apr-30 07:00N 32°07' W 091°02'4 8.0
2017-Apr-30 06:30N 32°11' W 090°60'5 9.0
2017-Apr-30 06:00N 32°15' W 090°59'4 8.9
2017-Apr-30 05:30N 32°18' W 090°55'3 6.1
2017-Apr-30 05:00N 32°21' W 090°57'3 6.8
2017-Apr-30 04:30N 32°23' W 090°60'4 7.1
2017-Apr-30 04:00N 32°26' W 091°02'4 8.5
2017-Apr-30 03:30N 32°28' W 091°07'5 8.5
2017-Apr-30 02:57N 32°33' W 091°06'4 8.7
2017-Apr-30 02:30N 32°36' W 091°09'  
2017-Apr-21 05:30N 32°46' W 091°09'2 3.7
2017-Apr-21 04:53N 32°44' W 091°07'2 4.6
2017-Apr-21 04:25N 32°44' W 091°04'3 3.2
2017-Apr-21 03:32N 32°41' W 091°04'1 5.2
2017-Apr-21 03:18N 32°41' W 091°06'2 4.8
2017-Apr-21 02:59N 32°40' W 091°07'2 4.1
2017-Apr-21 02:30N 32°39' W 091°09'2 3.2
2017-Apr-21 01:59N 32°37' W 091°09'2 3.8
2017-Apr-21 01:30N 32°36' W 091°08'2 3.5
2017-Apr-21 01:00N 32°34' W 091°06'2 4.1
2017-Apr-21 00:30N 32°32' W 091°06'2 4.9
2017-Apr-21 00:00N 32°30' W 091°07'2 4.2
2017-Apr-20 23:30N 32°28' W 091°06'2 4.1
2017-Apr-20 23:00N 32°27' W 091°04'2 4.1
2017-Apr-20 22:30N 32°26' W 091°02'2 3.8
2017-Apr-20 22:00N 32°25' W 091°00'2 3.7
2017-Apr-20 21:30N 32°23' W 090°60'2 3.7
2017-Apr-20 21:00N 32°21' W 090°60'1 2.3
2017-Apr-20 20:30N 32°21' W 090°58'0 0.4
2017-Apr-20 20:00N 32°21' W 090°58'2 4.4
2017-Apr-20 19:30N 32°20' W 090°56'2 3.4
2017-Apr-20 19:00N 32°19' W 090°54'2 4.4
2017-Apr-20 18:30N 32°18' W 090°56'2 3.9
2017-Apr-20 18:00N 32°16' W 090°58'2 4.0
2017-Apr-20 17:30N 32°15' W 090°59'2 4.1
2017-Apr-20 17:00N 32°13' W 090°59'2 3.6
2017-Apr-20 16:30N 32°11' W 090°60'2 4.1
2017-Apr-20 16:00N 32°09' W 091°00'2 3.8
2017-Apr-20 15:28N 32°07' W 091°02'4 4.7
2017-Apr-20 14:40N 32°08' W 091°06'1 4.7
2017-Apr-20 14:30N 32°07' W 091°07'4 4.3
2017-Apr-20 13:29N 32°04' W 091°04'2 4.5
2017-Apr-20 13:00N 32°01' W 091°04'3 4.7
2017-Apr-20 12:27N 31°59' W 091°06'4 4.1
2017-Apr-20 11:26N 31°58' W 091°11'4 4.9
2017-Apr-20 10:32N 31°54' W 091°12'1 4.1
2017-Apr-20 10:22N 31°53' W 091°13'7 3.6
2017-Apr-20 08:19N 31°51' W 091°21'1 3.7
2017-Apr-20 07:57N 31°49' W 091°21'3 4.9
2017-Apr-20 07:18N 31°46' W 091°22'  
Track history (hours):
 
Tides and Currents Weather Stations Pressure Air Temp Water Temp Dewpoint Dewpoint Depression Visibility Wind Speed Wind Dir Waves Ship Positions

Jacky L O'neal

Owner: American Commercial Lines LLC, Jeffersonville, IN. More information available from US FCC via Universal Licensing System and Coast Guard Vessel Documentation Center.

Last reported at 2017-Apr-30 07:00 UTC. Time now 2017-Apr-30 07:07 UTC.
Position N 32°07' W 091°02'.

Length 55 m; draft 2.9 m.

Type: Tow > 200 m length. MMSI: 367530760.

Date/timePositionNaut miles runAvg speedWind from/ knotsBaromVisibWave heightAir tempDewpointWater temp
2017-Apr-30 07:00N 32°07' W 091°02'4 8.0
2017-Apr-30 06:30N 32°11' W 090°60'5 9.0
2017-Apr-30 06:00N 32°15' W 090°59'4 8.9
2017-Apr-30 05:30N 32°18' W 090°55'3 6.1
2017-Apr-30 05:00N 32°21' W 090°57'3 6.8
2017-Apr-30 04:30N 32°23' W 090°60'4 7.1
2017-Apr-30 04:00N 32°26' W 091°02'4 8.5
2017-Apr-30 03:30N 32°28' W 091°07'5 8.5
2017-Apr-30 02:57N 32°33' W 091°06'4 8.7
2017-Apr-30 02:30N 32°36' W 091°09'  
2017-Apr-21 05:30N 32°46' W 091°09'2 3.7
2017-Apr-21 04:53N 32°44' W 091°07'2 4.6
2017-Apr-21 04:25N 32°44' W 091°04'3 3.2
2017-Apr-21 03:32N 32°41' W 091°04'1 5.2
2017-Apr-21 03:18N 32°41' W 091°06'2 4.8
2017-Apr-21 02:59N 32°40' W 091°07'2 4.1
2017-Apr-21 02:30N 32°39' W 091°09'2 3.2
2017-Apr-21 01:59N 32°37' W 091°09'2 3.8
2017-Apr-21 01:30N 32°36' W 091°08'2 3.5
2017-Apr-21 01:00N 32°34' W 091°06'2 4.1
2017-Apr-21 00:30N 32°32' W 091°06'2 4.9
2017-Apr-21 00:00N 32°30' W 091°07'2 4.2
2017-Apr-20 23:30N 32°28' W 091°06'2 4.1
2017-Apr-20 23:00N 32°27' W 091°04'2 4.1
2017-Apr-20 22:30N 32°26' W 091°02'2 3.8
2017-Apr-20 22:00N 32°25' W 091°00'2 3.7
2017-Apr-20 21:30N 32°23' W 090°60'2 3.7
2017-Apr-20 21:00N 32°21' W 090°60'1 2.3
2017-Apr-20 20:30N 32°21' W 090°58'0 0.4
2017-Apr-20 20:00N 32°21' W 090°58'2 4.4
2017-Apr-20 19:30N 32°20' W 090°56'2 3.4
2017-Apr-20 19:00N 32°19' W 090°54'2 4.4
2017-Apr-20 18:30N 32°18' W 090°56'2 3.9
2017-Apr-20 18:00N 32°16' W 090°58'2 4.0
2017-Apr-20 17:30N 32°15' W 090°59'2 4.1
2017-Apr-20 17:00N 32°13' W 090°59'2 3.6
2017-Apr-20 16:30N 32°11' W 090°60'2 4.1
2017-Apr-20 16:00N 32°09' W 091°00'2 3.8
2017-Apr-20 15:28N 32°07' W 091°02'4 4.7
2017-Apr-20 14:40N 32°08' W 091°06'1 4.7
2017-Apr-20 14:30N 32°07' W 091°07'4 4.3
2017-Apr-20 13:29N 32°04' W 091°04'2 4.5
2017-Apr-20 13:00N 32°01' W 091°04'3 4.7
2017-Apr-20 12:27N 31°59' W 091°06'4 4.1
2017-Apr-20 11:26N 31°58' W 091°11'4 4.9
2017-Apr-20 10:32N 31°54' W 091°12'1 4.1
2017-Apr-20 10:22N 31°53' W 091°13'7 3.6
2017-Apr-20 08:19N 31°51' W 091°21'1 3.7
2017-Apr-20 07:57N 31°49' W 091°21'3 4.9
2017-Apr-20 07:18N 31°46' W 091°22'  

Dump ship's entire track history